Sonic Adventure (DX): Overall Rankings

Records: Times | Rings | Scores | Races | Bosses | Freestyle
Leaders: Times | Rings | Scores | Races | Bosses | Freestyle | Overall
Rank Player Percent Points Order Asc Date
1 Sonicspeedruner 98.4% 247 01-29-15
2 Gamepro011 97.5% 391 01-29-15
3 DarkPolarNight 96.5% 551 01-29-15
4 Jawzun 94.0% 953 01-29-15
5 Dashjump 92.0% 1267 01-29-15
6 DarkspinesSonic 91.1% 1409 01-29-15
7 Avento128bits 90.6% 1486 01-29-15
8 ike6252 90.5% 1508 01-29-15
9 F-Man 86.3% 2171 01-29-15
10 HyperSonic7701 85.6% 2291 01-29-15
11 yoshifan 84.1% 2529 01-29-15
12 Coolfansonic 84.0% 2537 01-29-15
13 frankoredstrato 83.6% 2606 01-29-15
14 francisco 82.5% 2780 01-29-15
15 Marth 82.2% 2829 01-29-15
16 InferSaime 81.1% 3004 01-29-15
17 PfoSonic 80.7% 3070 01-29-15
18 Paragod 80.1% 3161 01-29-15
19 THC98 78.6% 3397 01-29-15
20 Stefan 77.0% 3648 01-29-15
21 RPGnutter 74.9% 3994 01-29-15
22 bertin 74.6% 4043 01-29-15
23 sonicam 72.4% 4385 01-29-15
24 Combo 66.6% 5314 01-29-15
25 SkyLights 65.4% 5504 01-29-15
26 Diamond 63.5% 5802 01-29-15
27 SonicDash1999 62.5% 5965 01-29-15
28 GerbilSoft 61.2% 6175 01-29-15
28 Auriman1 61.2% 6175 01-29-15
30 OmegaDJ 61.1% 6180 01-29-15
31 magnum12 60.2% 6335 01-29-15
32 Dawid8404 60.0% 6357 01-29-15
33 Thorn 58.2% 6655 01-29-15
34 P1 Pause 57.9% 6701 01-29-15
35 mike89 56.6% 6906 01-29-15
36 Groudon199 54.7% 7214 01-29-15
37 Dave Cramer 54.6% 7223 01-29-15
38 chainchumper 54.2% 7289 01-29-15
39 Shadow Jacky 53.5% 7391 01-29-15
40 Parax 53.5% 7404 01-29-15
41 Psymar 48.3% 8223 01-29-15
42 Chao_Fan 46.6% 8503 01-29-15
43 Arch 46.3% 8551 01-29-15
44 mauserman 45.8% 8631 01-29-15
45 Quartz 45.4% 8690 01-29-15
46 teamblackarms 44.4% 8850 01-29-15
47 Psyknux 44.0% 8917 01-29-15
48 James_Bertolli 43.6% 8980 01-29-15
49 NintenDan 43.0% 9063 01-29-15
50 Webber3000 42.4% 9160 01-29-15
51 Turbos 42.3% 9179 01-29-15
52 Fr3nZy 42.2% 9191 01-29-15
53 Ring Rush 42.2% 9196 01-29-15
54 Cream147 42.1% 9213 01-29-15
55 videogamemaster777 42.0% 9230 01-29-15
56 Siavash Tazari 41.7% 9282 01-29-15
57 buddychaos0415 41.3% 9346 01-29-15
58 SadisticMystic 40.4% 9478 01-29-15
59 eggFL 39.7% 9590 01-29-15
60 Redd 39.0% 9704 01-29-15
61 SB737 38.1% 9846 01-29-15
62 drminus 37.9% 9883 01-29-15
63 supersonicfan 36.9% 10036 01-29-15
64 FuzZerd 35.8% 10216 01-29-15
65 elecmouse101 35.1% 10323 01-29-15
66 supersonic465 35.0% 10343 01-29-15
67 Austinf 33.6% 10574 01-29-15
68 metanightmare22 33.5% 10590 01-29-15
69 Aitamen 33.4% 10607 01-29-15
70 dabestgamer 33.3% 10619 01-29-15
71 Cyan Ryan 33.2% 10636 01-29-15
72 MiStEr_ShAoLiN 33.1% 10640 01-29-15
73 itsPersonnal 32.1% 10810 01-29-15
74 Cybrax 31.3% 10940 01-29-15
75 Andrea Ritsu 31.1% 10962 01-29-15
76 SilvertheAlmighty 31.0% 10981 01-29-15
77 danieldude 31.0% 10984 01-29-15
78 VMU Player Banned 29.1% 11283 01-29-15
79 Staf 28.6% 11357 01-29-15
80 Omega Rafael Santos 28.6% 11371 01-29-15
81 The T 28.4% 11400 01-29-15
82 EngiNerd 28.1% 11447 01-29-15
83 lordmetalsonic 27.4% 11562 01-29-15
84 Hipertails12 26.9% 11638 01-29-15
85 welldooder64 26.7% 11664 01-29-15
86 Sondow 26.6% 11677 01-29-15
86 GreatStar 26.6% 11677 01-29-15
88 The Great Lord Mick 26.4% 11717 01-29-15
89 Mastakirby 26.3% 11737 01-29-15
90 LinksDarkArrows 26.2% 11746 01-29-15
91 Skylace 25.2% 11902 01-29-15
92 Rolken 23.8% 12133 01-29-15
93 Nimrod 23.0% 12262 01-29-15
94 Xia 22.2% 12377 01-29-15
95 Kogen Player Banned 22.1% 12401 01-29-15
96 Spinballwizard 22.0% 12416 01-29-15
97 Cutiefox 21.6% 12483 01-29-15
98 f0rever_zer0 21.5% 12496 01-29-15
99 Don 21.4% 12503 01-29-15
100 Miles9999 21.4% 12507 01-29-15
101 andres430 20.8% 12614 01-29-15
102 Cruizer 20.7% 12628 01-29-15
103 iSonicKid2K 20.4% 12662 01-29-15
104 SADXTryHard 20.0% 12738 01-29-15
105 GarnetPrincess 19.7% 12779 01-29-15
106 knuckles_sonic8 19.1% 12882 01-29-15
107 Team_Yoshi 18.4% 12985 01-29-15
108 The Knuckles Chao 18.2% 13028 01-29-15
109 FoxBoy 18.0% 13060 01-29-15
110 Termon 17.9% 13076 01-29-15
111 KinkyCadence 17.7% 13098 01-29-15
112 Sonic Singularity 15.8% 13403 01-29-15
113 Pokemonmaster888 15.8% 13405 01-29-15
114 SonicWinDX 15.3% 13479 01-29-15
115 BigAL49 14.8% 13566 01-29-15
116 SilverSonic 14.6% 13599 01-29-15
117 MPit08 14.5% 13612 01-29-15
118 Mo Player Banned 14.3% 13649 01-29-15
119 HyperSonic64 13.5% 13761 01-29-15
120 Cod4Scopes 13.5% 13766 01-29-15
121 booo95 13.4% 13782 01-29-15
122 Chawkk 13.3% 13803 01-29-15
123 SuperSonic101 13.1% 13832 01-29-15
124 Maxinfamily 12.9% 13869 01-29-15
125 Hunters13 12.9% 13870 01-29-15
126 PsyBorg 12.6% 13919 01-29-15
127 Kanimayo_Jp 12.5% 13921 01-29-15
128 Flying Fox 12.5% 13924 01-29-15
129 BrokenArthritis 12.4% 13939 01-29-15
130 LilZero 12.4% 13945 01-29-15
131 paulie9990 12.3% 13962 01-29-15
132 sonicspeed 11.8% 14032 01-29-15
133 douglas 11.7% 14056 01-29-15
134 Therio 11.6% 14075 01-29-15
135 Matt_TY 11.4% 14104 01-29-15
136 Cooljay 10.8% 14206 01-29-15
137 SeaWolf 10.6% 14223 01-29-15
138 joecoolgames 10.6% 14230 01-29-15
139 TFEC Headshot 10.1% 14315 01-29-15
140 welshmoose05 10.0% 14323 01-29-15
141 crazy1993 9.8% 14364 01-29-15
142 Mcshuggets 9.6% 14390 01-29-15
143 videogamer1014 9.4% 14415 01-29-15
144 SonicAD 9.2% 14456 01-29-15
144 nuckrieg 9.2% 14456 01-29-15
144 imazor017 9.2% 14456 01-29-15
147 niscool 9.1% 14463 01-29-15
148 SirTobbii 9.1% 14471 01-29-15
149 superjupi 8.9% 14501 01-29-15
150 Shadowthegreat 8.9% 14504 01-29-15
151 SaviourDC 8.6% 14555 01-29-15
152 iarebored 8.5% 14559 01-29-15
153 sonamyfan666 8.5% 14566 01-29-15
154 SonicKnuckles 8.4% 14587 01-29-15
155 Werey 8.3% 14593 01-29-15
156 adf 8.0% 14640 01-29-15
157 ArcticDragon 7.9% 14663 01-29-15
158 Megaman EXE565 7.9% 14664 01-29-15
159 Platformer 7.5% 14722 01-29-15
160 FocusSight64 7.4% 14745 01-29-15
161 timpkmn89 7.3% 14752 01-29-15
162 wheatrich 7.3% 14753 01-29-15
163 Swift Hobo 7.3% 14764 01-29-15
164 Rickyman48 7.1% 14791 01-29-15
165 KitsuneYamaro 6.9% 14822 01-29-15
166 Triseena 6.8% 14843 01-29-15
167 CyberShadow 6.6% 14871 01-29-15
168 dShadow 6.5% 14886 01-29-15
168 slade23 6.5% 14886 01-29-15
170 Starlight Sable 6.4% 14901 01-29-15
171 IsisDazs 6.3% 14918 01-29-15
172 BlankTH 6.2% 14936 01-29-15
173 Monkeh 5.9% 14985 01-29-15
174 Richied 5.8% 14988 01-29-15
175 DaDude 5.7% 15009 01-29-15
176 Zip 5.6% 15033 01-29-15
177 sonicd5 5.5% 15036 01-29-15
178 tal39h 5.2% 15087 01-29-15
179 Kirbymon30 5.2% 15098 01-29-15
180 soniccoloursunleashed 4.9% 15141 01-29-15
181 Drflash55 4.9% 15142 01-29-15
182 Bass 4.7% 15167 01-29-15
183 neaolas 4.7% 15168 01-29-15
184 superiorsonic 4.6% 15185 01-29-15
185 Sonicsuperstar1 4.6% 15190 01-29-15
186 UninspiredUsername 4.6% 15192 01-29-15
187 zapp 4.6% 15194 01-29-15
188 gamefreak1292 4.4% 15212 01-29-15
189 SonicU260 4.2% 15256 01-29-15
190 Chaos_Overlord 4.2% 15257 01-29-15
191 TakaRikka 4.0% 15277 01-29-15
192 Valfore 4.0% 15285 01-29-15
193 ShinigamiMachine 3.8% 15316 01-29-15
194 Regano1000 3.8% 15321 01-29-15
195 MK 3.6% 15341 01-29-15
196 Ace747 3.6% 15349 01-29-15
197 Illidan 3.3% 15401 01-29-15
198 Venick409 3.1% 15423 01-29-15
199 Sithwarrior26 3.1% 15430 01-29-15
200 Brian_pso 3.1% 15431 01-29-15
201 TheChaosEmeraIds 3.0% 15447 01-29-15
202 ingx24 2.9% 15451 01-29-15
203 SkyBon 2.9% 15458 01-29-15
204 Nickson98 2.9% 15461 01-29-15
205 Fozer 2.8% 15473 01-29-15
206 Colomb_30 2.8% 15481 01-29-15
206 sonic29887 2.8% 15481 01-29-15
208 FSSRandomvids 2.7% 15483 01-29-15
209 TheUltraBlur 2.6% 15499 01-29-15
210 1stKirbyever 2.6% 15509 01-29-15
211 Th4tN1nj4Turtl3 2.4% 15543 01-29-15
212 Cort_pso 2.3% 15550 01-29-15
213 ieatatsonic 2.3% 15554 01-29-15
214 Doom-9 2.3% 15555 01-29-15
215 Mariosonic15 2.3% 15560 01-29-15
216 SuperSonic71087 2.2% 15568 01-29-15
217 MStitomix 2.1% 15580 01-29-15
218 HermitHelmet 2.1% 15581 01-29-15
219 Artie 2.0% 15593 01-29-15
220 Got4n 2.0% 15596 01-29-15
221 Jose_15 2.0% 15605 01-29-15
222 Questionguy555 1.9% 15610 01-29-15
223 a_moustache 1.9% 15616 01-29-15
224 djmat 1.9% 15620 01-29-15
225 sonicandamy 1.7% 15645 01-29-15
226 Heroes_Hater 1.7% 15646 01-29-15
227 LancexExWx 1.7% 15647 01-29-15
228 son1cgu1tar 1.7% 15651 01-29-15
229 Paixii 1.6% 15657 01-29-15
230 BallzeH 1.6% 15671 01-29-15
231 Mankster101 1.5% 15676 01-29-15
232 BecauseWarAnvil 1.5% 15677 01-29-15
233 Jamixesa 1.5% 15681 01-29-15
234 SpiritDragon1995 1.4% 15689 01-29-15
234 Shanekilz 1.4% 15689 01-29-15
236 Crydio 1.4% 15692 01-29-15
237 ReuelBrony 1.4% 15700 01-29-15
238 stanski 1.3% 15708 01-29-15
239 Sonique Hedgehog 1.3% 15710 01-29-15
240 p0ker 1.2% 15721 01-29-15
241 Blue Infamy 1.2% 15723 01-29-15
242 Arthas 1.2% 15733 01-29-15
242 ErrortheCucco 1.2% 15733 01-29-15
244 Rikum22 1.1% 15736 01-29-15
245 WingedInsignia 1.1% 15744 01-29-15
245 sonic1001 1.1% 15744 01-29-15
247 AJSIV 1.1% 15751 01-29-15
247 syco1098 1.1% 15751 01-29-15
249 Sonic the Hedgehod16 1.0% 15752 01-29-15
250 Calfd 1.0% 15759 01-29-15
251 Mariobutch 1.0% 15760 01-29-15
252 BlackArmsShadow 0.9% 15769 01-29-15
253 themachoman202 0.9% 15774 01-29-15
254 Ben1502 0.9% 15779 01-29-15
255 shadowblast63 Player Banned 0.9% 15780 01-29-15
255 MastaToken 0.9% 15780 01-29-15
257 Greham Adelphis 0.9% 15781 01-29-15
257 Fivavoa 0.9% 15781 01-29-15
259 Mr. Jones 0.8% 15784 01-29-15
259 darkstarblaze 0.8% 15784 01-29-15
259 ptorflaxendrosis 0.8% 15784 01-29-15
262 arcfx1985 0.8% 15786 01-29-15
263 Knuckles 0.8% 15790 01-29-15
263 Gvozdevik 0.8% 15790 01-29-15
263 FlandreScarlet9999vr 0.8% 15790 01-29-15
266 KaM Mark MaK 0.8% 15798 01-29-15
267 BeeAwwb 0.7% 15800 01-29-15
268 ShadouZaHejjihoggu 0.7% 15805 01-29-15
269 Sonic62 0.7% 15811 01-29-15
270 darkersupershadic 0.7% 15814 01-29-15
271 Sogeking 0.7% 15815 01-29-15
272 dragondragon18 0.6% 15818 01-29-15
272 Shadygamerfreak 0.6% 15818 01-29-15
274 Sarger001 0.6% 15819 01-29-15
274 SonicK100 0.6% 15819 01-29-15
276 Grady219 0.6% 15820 01-29-15
277 Jawaah 0.6% 15824 01-29-15
278 Antek 0.6% 15828 01-29-15
279 SilverK 0.6% 15829 01-29-15
280 Klaus 0.6% 15830 01-29-15
281 BioShadow 0.5% 15835 01-29-15
282 SpinDashMaster 0.5% 15839 01-29-15
283 Videogamer123 0.5% 15840 01-29-15
284 oTaiIilLsS 0.4% 15854 01-29-15
284 Egor305 0.4% 15854 01-29-15
286 isaihtb11 0.4% 15855 01-29-15
287 OhNoes! 0.4% 15856 01-29-15
288 Mad Andy 0.4% 15857 01-29-15
289 zaktu40 0.4% 15858 01-29-15
290 gaara1234 0.4% 15861 01-29-15
291 gamed00d 0.4% 15862 01-29-15
292 Mister_Slick 0.3% 15872 01-29-15
293 Sonic06Fan 0.3% 15874 01-29-15
294 Rush Hero 0.3% 15875 01-29-15
295 SonicMega167 0.3% 15878 01-29-15
296 Iwannabelink 0.3% 15879 01-29-15
297 sonknuck23 0.2% 15884 01-29-15
298 gamer1245 0.2% 15889 01-29-15
299 DanielTheFalcon 0.2% 15890 01-29-15
300 Burningskull123 0.1% 15897 01-29-15
301 Sonicontherun 0.1% 15907 01-29-15
302 Lil_Dude 0.1% 15911 01-29-15
303 antiwwe 0.0% 15913 01-29-15
304 Genuine Hedgehog 0.0% 15917 01-29-15
305 Cbwade15 0.0% 15918 01-29-15
306 Tyrouble 0.0% 15920 01-29-15
307 sdj6707 Player Banned 0.0% 15927 01-29-15
307 Tran Sonic Fan Player Banned 0.0% 15927 01-29-15
307 neji_hyuuga 0.0% 15927 01-29-15
307 MegabombBlade 0.0% 15927 01-29-15
307 Over 0.0% 15927 01-29-15

This page is using the New Data Table System. [FUTURE]

Game ID: 3 | Category ID: 10
Hits: 61,933 | Hits This Month: 449 | DB Calls: 21 | Mem Usage: 5.44 MB | Time: 0.12s | Printable

The Sonic Center v3.9
Copyright 2003-2011 by The Sonic Center Team.